Time;durP1;ratioP1;P1;durP2;ratioP2;P2;SDS_P1;SDS_P2;PMS_P1;PMS_P2;Temp;Humidity;BMP_temperature;BMP_pressure;BME280_temperature;BME280_humidity;BME280_pressure;Samples;Min_cycle;Max_cycle;Signal;HPM_P1;HPM_P2
2021/05/16 00:01:17;;;;;;;4.03;0.90;;;14.60;99.90;;;;;;5036325;28;20068;-57
2021/05/16 00:04:21;;;;;;;4.80;0.90;;;14.80;99.90;;;;;;5048840;28;20439;-54
2021/05/16 00:07:25;;;;;;;6.78;1.42;;;14.70;99.90;;;;;;5039959;28;20408;-56
2021/05/16 00:10:29;;;;;;;3.42;0.90;;;14.70;99.90;;;;;;5040618;28;20052;-54
2021/05/16 00:13:33;;;;;;;2.78;0.88;;;14.80;99.90;;;;;;5034626;28;20047;-58
2021/05/16 00:16:37;;;;;;;2.80;0.95;;;14.80;99.90;;;;;;5048865;28;20526;-58
2021/05/16 00:19:42;;;;;;;2.75;1.13;;;14.80;99.90;;;;;;5048627;28;20051;-57
2021/05/16 00:22:46;;;;;;;6.47;1.10;;;14.80;99.90;;;;;;5048801;28;20044;-57
2021/05/16 00:25:50;;;;;;;5.53;1.40;;;14.80;99.90;;;;;;5046447;28;20044;-57
2021/05/16 00:28:54;;;;;;;2.85;0.98;;;14.80;99.90;;;;;;5048494;28;20048;-59
2021/05/16 00:31:58;;;;;;;5.10;1.00;;;14.80;99.90;;;;;;5048772;28;20052;-58
2021/05/16 00:35:07;;;;;;;5.75;1.05;;;14.90;99.90;;;;;;5048820;28;20048;-55
2021/05/16 00:38:16;;;;;;;6.57;1.00;;;14.90;99.90;;;;;;5048916;28;20059;-58
2021/05/16 00:41:20;;;;;;;3.97;0.88;;;14.60;99.90;;;;;;5047818;28;20407;-57
2021/05/16 00:44:24;;;;;;;2.78;1.10;;;14.70;99.90;;;;;;5037819;22;20053;-67
2021/05/16 00:47:29;;;;;;;6.10;1.38;;;14.60;99.90;;;;;;5022059;28;20056;-67
2021/05/16 00:50:39;;;;;;;5.28;1.00;;;14.60;99.90;;;;;;5030375;28;20056;-67
2021/05/16 00:53:44;;;;;;;3.45;1.00;;;14.60;99.90;;;;;;5017437;28;20037;-68
2021/05/16 00:56:49;;;;;;;4.25;1.20;;;14.40;99.90;;;;;;5027214;28;20045;-67
2021/05/16 00:59:54;;;;;;;6.13;1.05;;;14.60;99.90;;;;;;5024868;28;20068;-67
2021/05/16 01:03:00;;;;;;;5.22;1.00;;;14.70;99.90;;;;;;5025515;28;20048;-69
2021/05/16 01:06:06;;;;;;;3.08;1.20;;;14.60;99.90;;;;;;5030430;28;20044;-67
2021/05/16 01:09:15;;;;;;;8.00;1.38;;;14.60;99.90;;;;;;5028949;28;20044;-68
2021/05/16 01:12:20;;;;;;;3.55;0.90;;;14.70;99.90;;;;;;5014659;28;20042;-68
2021/05/16 01:15:26;;;;;;;5.00;1.20;;;14.70;99.90;;;;;;5000814;28;20049;-67
2021/05/16 01:18:33;;;;;;;4.22;1.00;;;14.80;99.90;;;;;;5024953;28;20057;-68
2021/05/16 01:21:37;;;;;;;7.20;1.30;;;14.90;99.90;;;;;;5011425;28;20049;-67
2021/05/16 01:24:45;;;;;;;5.82;1.25;;;14.70;99.90;;;;;;5011347;28;20061;-68
2021/05/16 01:27:50;;;;;;;7.68;1.40;;;14.60;99.90;;;;;;5012273;28;20259;-69
2021/05/16 01:30:55;;;;;;;6.35;1.38;;;14.80;99.90;;;;;;5011834;28;20512;-68
2021/05/16 01:34:00;;;;;;;6.28;1.02;;;14.80;99.90;;;;;;5011783;28;20044;-69
2021/05/16 01:37:04;;;;;;;6.15;0.98;;;14.90;99.90;;;;;;5011605;28;20056;-67
2021/05/16 01:40:09;;;;;;;3.92;1.00;;;15.00;99.90;;;;;;5010418;28;20504;-67
2021/05/16 01:43:14;;;;;;;3.45;0.85;;;15.00;99.90;;;;;;4996384;28;20045;-67
2021/05/16 01:46:19;;;;;;;5.95;0.95;;;15.00;99.90;;;;;;5015377;28;20049;-68
2021/05/16 01:49:23;;;;;;;2.97;0.95;;;14.90;99.90;;;;;;5027610;28;20037;-68
2021/05/16 01:52:31;;;;;;;5.88;1.10;;;14.90;99.90;;;;;;5030845;28;20396;-67
2021/05/16 01:55:36;;;;;;;7.90;1.58;;;14.60;99.90;;;;;;5031785;28;20044;-67
2021/05/16 01:58:41;;;;;;;4.18;1.30;;;14.50;99.90;;;;;;5031350;28;20504;-67
2021/05/16 02:01:45;;;;;;;6.00;1.15;;;14.20;99.90;;;;;;5024938;28;20046;-67
2021/05/16 02:04:50;;;;;;;7.38;1.48;;;14.20;99.90;;;;;;5010724;28;20413;-68
2021/05/16 02:07:55;;;;;;;4.30;1.10;;;14.20;99.90;;;;;;5003435;28;20048;-67
2021/05/16 02:11:02;;;;;;;4.60;1.27;;;14.30;99.90;;;;;;4999584;28;20040;-67
2021/05/16 02:14:09;;;;;;;4.45;1.25;;;14.10;99.90;;;;;;4999538;28;20109;-67
2021/05/16 02:17:14;;;;;;;6.75;1.35;;;13.90;99.90;;;;;;5005832;28;20132;-67
2021/05/16 02:20:20;;;;;;;4.50;1.20;;;14.00;99.90;;;;;;5018688;28;20043;-67
2021/05/16 02:23:25;;;;;;;9.30;1.80;;;14.10;99.90;;;;;;5005915;28;20526;-67
2021/05/16 02:26:29;;;;;;;5.78;1.27;;;13.90;99.90;;;;;;5029820;28;20503;-68
2021/05/16 02:29:34;;;;;;;9.77;2.05;;;14.00;99.90;;;;;;5030377;28;20496;-67
2021/05/16 02:32:38;;;;;;;6.53;1.20;;;14.00;99.90;;;;;;5018665;28;20052;-68
2021/05/16 02:35:43;;;;;;;7.35;1.35;;;14.10;99.90;;;;;;5031431;28;20494;-67
2021/05/16 02:38:48;;;;;;;5.70;1.83;;;14.20;99.90;;;;;;5029195;28;20056;-68
2021/05/16 02:41:53;;;;;;;4.93;1.20;;;14.10;99.90;;;;;;5029555;28;20049;-67
2021/05/16 02:44:58;;;;;;;6.35;1.17;;;14.00;99.90;;;;;;5018487;28;20056;-67
2021/05/16 02:48:02;;;;;;;9.20;1.13;;;13.90;99.90;;;;;;5030830;28;20396;-67
2021/05/16 02:51:11;;;;;;;4.93;1.30;;;14.00;99.90;;;;;;5028998;28;20499;-67
2021/05/16 02:54:19;;;;;;;5.60;1.17;;;13.80;99.90;;;;;;5017723;28;20072;-67
2021/05/16 02:57:24;;;;;;;3.10;1.08;;;13.80;99.90;;;;;;5030931;28;20243;-67
2021/05/16 03:00:29;;;;;;;7.03;1.50;;;13.90;99.90;;;;;;5029536;28;20060;-67
2021/05/16 03:03:33;;;;;;;5.93;1.25;;;14.10;99.90;;;;;;5030246;28;20049;-67
2021/05/16 03:06:42;;;;;;;7.18;1.27;;;14.00;99.90;;;;;;5018396;28;20056;-67
2021/05/16 03:09:46;;;;;;;9.73;1.35;;;13.80;99.90;;;;;;5028944;28;20056;-68
2021/05/16 03:12:51;;;;;;;8.32;1.83;;;13.90;99.90;;;;;;5023506;28;20056;-67
2021/05/16 03:15:56;;;;;;;7.28;1.40;;;13.80;99.90;;;;;;5030263;28;20116;-67
2021/05/16 03:19:04;;;;;;;10.25;1.77;;;13.60;99.90;;;;;;5010598;28;20128;-68
2021/05/16 03:22:15;;;;;;;5.05;1.40;;;13.70;99.90;;;;;;4997820;28;20052;-69
2021/05/16 03:25:22;;;;;;;6.25;1.90;;;13.80;99.90;;;;;;5009136;28;20057;-68
2021/05/16 03:28:28;;;;;;;13.02;1.92;;;14.00;99.90;;;;;;5000484;28;20114;-67
2021/05/16 03:31:32;;;;;;;4.60;1.27;;;14.10;99.90;;;;;;5029593;28;20045;-67
2021/05/16 03:34:36;;;;;;;6.45;1.48;;;14.10;99.90;;;;;;5017206;28;20044;-68
2021/05/16 03:37:42;;;;;;;8.60;2.42;;;14.10;99.90;;;;;;5030255;28;20072;-67
2021/05/16 03:40:47;;;;;;;10.77;2.25;;;14.00;99.90;;;;;;5029852;28;20400;-68
2021/05/16 03:43:51;;;;;;;10.20;1.92;;;14.10;99.90;;;;;;5028956;28;20048;-68
2021/05/16 03:46:56;;;;;;;7.32;1.70;;;14.10;99.90;;;;;;5013298;28;20052;-68
2021/05/16 03:50:02;;;;;;;7.45;1.63;;;14.10;99.90;;;;;;5010228;28;20389;-67
2021/05/16 03:53:07;;;;;;;9.82;1.50;;;14.10;99.90;;;;;;5027000;28;20484;-67
2021/05/16 03:56:11;;;;;;;11.93;2.22;;;14.10;99.90;;;;;;5029548;28;20044;-68
2021/05/16 03:59:15;;;;;;;11.70;2.03;;;14.10;99.90;;;;;;5029437;28;20389;-68
2021/05/16 04:02:22;;;;;;;9.40;1.92;;;14.10;99.90;;;;;;5014980;28;20060;-68
2021/05/16 04:05:27;;;;;;;9.52;2.28;;;14.10;99.90;;;;;;5029079;28;20040;-67
2021/05/16 04:08:31;;;;;;;11.25;2.38;;;14.10;99.90;;;;;;5016068;28;20044;-68
2021/05/16 04:11:35;;;;;;;8.40;1.67;;;14.10;99.90;;;;;;5027128;28;20041;-68
2021/05/16 04:14:41;;;;;;;14.27;2.10;;;14.10;99.90;;;;;;5028805;28;20041;-67
2021/05/16 04:17:46;;;;;;;8.02;2.03;;;14.10;99.90;;;;;;5017241;28;20049;-68
2021/05/16 04:20:51;;;;;;;15.15;2.28;;;14.20;99.90;;;;;;5031015;28;20052;-67
2021/05/16 04:23:57;;;;;;;10.40;1.67;;;14.10;99.90;;;;;;5029659;28;20278;-68
2021/05/16 04:27:01;;;;;;;12.98;2.30;;;14.20;99.90;;;;;;5032997;28;20080;-68
2021/05/16 04:30:06;;;;;;;13.95;2.10;;;14.20;99.90;;;;;;5020893;28;20056;-69
2021/05/16 04:33:10;;;;;;;8.00;1.90;;;14.20;99.90;;;;;;5032732;28;20056;-67
2021/05/16 04:36:16;;;;;;;17.77;2.67;;;14.20;99.90;;;;;;5033490;28;20052;-68
2021/05/16 04:39:21;;;;;;;16.25;3.55;;;14.20;99.90;;;;;;5032766;28;20049;-68
2021/05/16 04:42:25;;;;;;;12.65;2.33;;;14.20;99.90;;;;;;5032974;28;20052;-69
2021/05/16 04:45:30;;;;;;;15.13;2.13;;;14.20;99.90;;;;;;5013046;28;20049;-69
2021/05/16 04:48:34;;;;;;;14.63;2.08;;;14.30;99.90;;;;;;5001303;28;20049;-69
2021/05/16 04:51:39;;;;;;;11.70;1.80;;;14.30;99.90;;;;;;5013021;28;20069;-68
2021/05/16 04:54:43;;;;;;;12.55;2.05;;;14.30;99.90;;;;;;5012593;28;20048;-68
2021/05/16 04:57:47;;;;;;;16.83;2.40;;;14.40;99.90;;;;;;5013692;28;20049;-68
2021/05/16 05:00:53;;;;;;;11.30;2.15;;;14.40;99.90;;;;;;5013268;28;20500;-69
2021/05/16 05:03:58;;;;;;;14.95;3.03;;;14.40;99.90;;;;;;5011961;28;20409;-68
2021/05/16 05:07:07;;;;;;;15.82;2.15;;;14.50;99.90;;;;;;5013168;28;20049;-68
2021/05/16 05:10:11;;;;;;;11.55;2.83;;;14.50;99.90;;;;;;5026558;28;20053;-68
2021/05/16 05:13:17;;;;;;;12.57;2.47;;;14.50;99.90;;;;;;5028359;28;20045;-68
2021/05/16 05:16:21;;;;;;;11.98;2.28;;;14.50;99.90;;;;;;5012952;28;20094;-68
2021/05/16 05:19:25;;;;;;;13.90;2.50;;;14.50;99.90;;;;;;5012713;28;20053;-68
2021/05/16 05:22:29;;;;;;;17.02;2.30;;;14.60;99.90;;;;;;5012579;28;20045;-68
2021/05/16 05:25:33;;;;;;;11.88;3.40;;;14.60;99.90;;;;;;5003699;28;20041;-68
2021/05/16 05:28:37;;;;;;;16.52;2.15;;;14.60;99.90;;;;;;5032684;28;20503;-68
2021/05/16 05:31:44;;;;;;;14.05;2.20;;;14.60;99.90;;;;;;5031740;28;20049;-69
2021/05/16 05:34:48;;;;;;;14.30;3.20;;;14.60;99.90;;;;;;5031750;28;20064;-69
2021/05/16 05:37:54;;;;;;;12.25;2.60;;;14.70;99.90;;;;;;5031741;28;20121;-68
2021/05/16 05:40:57;;;;;;;14.77;3.33;;;14.70;99.90;;;;;;5032164;28;20044;-68
2021/05/16 05:44:02;;;;;;;13.75;2.38;;;14.80;99.90;;;;;;5029079;28;20491;-68
2021/05/16 05:47:07;;;;;;;16.45;2.60;;;14.80;99.90;;;;;;5022115;28;20069;-67
2021/05/16 05:50:12;;;;;;;8.35;2.47;;;14.90;99.90;;;;;;5013615;28;20127;-68
2021/05/16 05:53:18;;;;;;;16.83;2.20;;;15.00;99.90;;;;;;5013684;28;20037;-69
2021/05/16 05:56:24;;;;;;;15.07;2.70;;;15.00;99.90;;;;;;5013225;28;20052;-68
2021/05/16 05:59:29;;;;;;;14.27;2.20;;;15.00;99.90;;;;;;5016565;28;20036;-69
2021/05/16 06:02:34;;;;;;;18.33;3.25;;;14.90;99.90;;;;;;4998390;28;20053;-68
2021/05/16 06:05:40;;;;;;;13.90;2.65;;;15.00;99.90;;;;;;5023226;28;20056;-69
2021/05/16 06:08:44;;;;;;;13.30;2.55;;;15.00;99.90;;;;;;5028074;28;20040;-69
2021/05/16 06:11:48;;;;;;;10.02;2.85;;;15.10;99.90;;;;;;5019330;28;20060;-68
2021/05/16 06:14:54;;;;;;;17.90;2.72;;;15.10;99.90;;;;;;5016700;28;20044;-68
2021/05/16 06:18:01;;;;;;;12.70;2.78;;;15.00;99.90;;;;;;5020440;28;20068;-68
2021/05/16 06:21:05;;;;;;;12.90;2.10;;;14.90;99.90;;;;;;5019123;28;20068;-69
2021/05/16 06:24:12;;;;;;;14.10;2.92;;;14.90;99.90;;;;;;5011921;28;20396;-69
2021/05/16 06:27:17;;;;;;;17.42;2.92;;;15.00;99.90;;;;;;5011801;28;20053;-68
2021/05/16 06:30:24;;;;;;;13.80;2.47;;;15.10;99.90;;;;;;5014042;28;20045;-69
2021/05/16 06:33:30;;;;;;;10.52;2.40;;;15.20;99.90;;;;;;5027138;28;20503;-68
2021/05/16 06:36:36;;;;;;;15.68;3.90;;;15.20;99.90;;;;;;5015300;28;20519;-69
2021/05/16 06:39:40;;;;;;;16.98;2.85;;;15.30;99.90;;;;;;5015947;28;20036;-67
2021/05/16 06:42:44;;;;;;;10.82;2.85;;;15.30;99.90;;;;;;5024214;28;20536;-68
2021/05/16 06:45:48;;;;;;;14.30;2.67;;;15.20;99.90;;;;;;5014968;28;20056;-68
2021/05/16 06:48:54;;;;;;;13.93;3.58;;;15.10;99.90;;;;;;5023216;28;20499;-68
2021/05/16 06:51:58;;;;;;;12.90;2.63;;;15.00;99.90;;;;;;5025268;28;20835;-68
2021/05/16 06:55:03;;;;;;;10.75;2.40;;;15.10;99.90;;;;;;5025263;28;20501;-68
2021/05/16 06:58:08;;;;;;;15.75;2.65;;;15.00;99.90;;;;;;5011096;28;20397;-67
2021/05/16 07:01:12;;;;;;;14.80;3.58;;;14.90;99.90;;;;;;5024494;28;20044;-68
2021/05/16 07:04:16;;;;;;;13.20;2.70;;;14.70;99.90;;;;;;5020504;28;20044;-67
2021/05/16 07:07:20;;;;;;;12.48;3.45;;;14.50;99.90;;;;;;5018195;28;20555;-68
2021/05/16 07:10:26;;;;;;;17.70;3.15;;;14.50;99.90;;;;;;5012493;28;20049;-67
2021/05/16 07:13:31;;;;;;;14.18;2.63;;;14.40;99.90;;;;;;5017065;28;20048;-69
2021/05/16 07:16:37;;;;;;;15.20;3.17;;;14.30;99.90;;;;;;5013616;28;20048;-68
2021/05/16 07:19:41;;;;;;;13.68;2.88;;;14.20;99.90;;;;;;5012100;28;20044;-68
2021/05/16 07:22:45;;;;;;;17.08;3.25;;;14.20;99.90;;;;;;5005773;28;20044;-69
2021/05/16 07:25:50;;;;;;;14.13;3.50;;;14.10;99.90;;;;;;5010618;28;20041;-68
2021/05/16 07:28:54;;;;;;;10.50;3.13;;;14.10;99.90;;;;;;5013707;28;20408;-69
2021/05/16 07:31:59;;;;;;;15.57;3.47;;;14.20;99.90;;;;;;5007629;28;20037;-70
2021/05/16 07:35:03;;;;;;;15.73;2.60;;;14.20;99.90;;;;;;5015013;28;20044;-69
2021/05/16 07:38:08;;;;;;;15.18;3.15;;;14.30;99.90;;;;;;5016057;28;20431;-70
2021/05/16 07:41:12;;;;;;;13.70;3.15;;;14.40;99.90;;;;;;4989197;28;20482;-70
2021/05/16 07:44:17;;;;;;;13.73;3.20;;;14.50;99.90;;;;;;5007421;28;20056;-69
2021/05/16 07:47:21;;;;;;;15.98;2.72;;;14.70;99.90;;;;;;5011652;28;20065;-69
2021/05/16 07:50:26;;;;;;;15.20;3.03;;;14.70;99.90;;;;;;5009373;28;20045;-67
2021/05/16 07:53:31;;;;;;;21.13;3.28;;;14.70;99.90;;;;;;5007136;28;20056;-68
2021/05/16 07:56:37;;;;;;;15.60;2.90;;;14.70;99.90;;;;;;5004652;28;20044;-67
2021/05/16 07:59:42;;;;;;;9.57;2.70;;;14.60;99.90;;;;;;5003787;28;20393;-68
2021/05/16 08:02:46;;;;;;;22.20;4.63;;;14.60;99.90;;;;;;5012314;28;20045;-68
2021/05/16 08:05:53;;;;;;;14.43;4.30;;;14.70;99.90;;;;;;5010293;28;20052;-68
2021/05/16 08:08:59;;;;;;;9.60;3.20;;;14.70;99.90;;;;;;5018917;28;20041;-68
2021/05/16 08:12:04;;;;;;;16.45;3.60;;;14.90;99.90;;;;;;5008276;28;20040;-68
2021/05/16 08:15:09;;;;;;;15.02;2.97;;;15.00;99.90;;;;;;5014121;28;20053;-68
2021/05/16 08:18:14;;;;;;;10.73;2.60;;;15.10;99.90;;;;;;5014434;28;20060;-68
2021/05/16 08:21:18;;;;;;;8.43;2.70;;;15.10;99.90;;;;;;5006951;28;20048;-69
2021/05/16 08:24:23;;;;;;;18.67;3.70;;;15.00;99.90;;;;;;5013954;28;20527;-70
2021/05/16 08:27:27;;;;;;;12.38;3.03;;;14.90;99.90;;;;;;5012492;28;20060;-67
2021/05/16 08:30:34;;;;;;;12.40;2.70;;;14.80;99.90;;;;;;5009392;28;20053;-68
2021/05/16 08:33:39;;;;;;;14.57;4.35;;;14.80;99.90;;;;;;5009453;28;20053;-69
2021/05/16 08:36:43;;;;;;;13.35;2.80;;;14.90;99.90;;;;;;5014423;28;20040;-68
2021/05/16 08:39:47;;;;;;;9.55;2.58;;;14.90;99.90;;;;;;5009468;28;20108;-67
2021/05/16 08:42:52;;;;;;;14.10;2.55;;;15.00;99.90;;;;;;5025212;28;20048;-67
2021/05/16 08:45:57;;;;;;;15.40;2.85;;;15.10;99.90;;;;;;5026395;28;20049;-68
2021/05/16 08:49:02;;;;;;;11.18;2.58;;;15.20;99.90;;;;;;5016145;28;20041;-67
2021/05/16 08:52:07;;;;;;;7.75;2.85;;;15.40;99.90;;;;;;5027135;28;20507;-67
2021/05/16 08:55:13;;;;;;;10.68;2.90;;;15.50;99.90;;;;;;5028191;28;20048;-68
2021/05/16 08:58:17;;;;;;;14.73;3.17;;;15.50;99.90;;;;;;5019567;28;20048;-67
2021/05/16 09:01:23;;;;;;;15.70;3.30;;;15.60;99.90;;;;;;5016358;28;20060;-68
2021/05/16 09:04:33;;;;;;;7.07;2.42;;;15.70;99.90;;;;;;5028720;28;20052;-66
2021/05/16 09:07:37;;;;;;;12.25;3.03;;;15.90;99.90;;;;;;5032166;28;20048;-67
2021/05/16 09:10:44;;;;;;;10.85;2.42;;;16.20;99.90;;;;;;5023510;28;20037;-67
2021/05/16 09:13:53;;;;;;;8.15;2.20;;;16.30;99.90;;;;;;5024469;28;20045;-67
2021/05/16 09:17:39;;;;;;;10.73;3.38;;;16.40;99.90;;;;;;5031947;28;20040;-67
2021/05/16 09:20:43;;;;;;;11.80;3.25;;;16.20;99.90;;;;;;4997061;28;20396;-67
2021/05/16 09:24:05;;;;;;;9.13;3.38;;;16.20;99.90;;;;;;5021480;28;20041;-67
2021/05/16 09:27:22;;;;;;;11.65;2.65;;;16.40;99.90;;;;;;5031797;28;20048;-68
2021/05/16 09:30:29;;;;;;;6.18;2.60;;;16.50;99.90;;;;;;5028045;28;20056;-68
2021/05/16 09:33:34;;;;;;;8.55;2.38;;;16.50;99.90;;;;;;5016952;28;20036;-67
2021/05/16 09:36:40;;;;;;;9.25;2.33;;;16.60;99.90;;;;;;5019761;28;20064;-68
2021/05/16 09:39:45;;;;;;;11.40;3.08;;;16.60;99.90;;;;;;5019142;28;20053;-67
2021/05/16 09:43:09;;;;;;;17.35;2.50;;;16.60;99.90;;;;;;5020052;28;20032;-68
2021/05/16 09:46:14;;;;;;;9.65;2.35;;;16.80;99.90;;;;;;5031876;28;20044;-68
2021/05/16 09:49:25;;;;;;;10.82;2.92;;;16.90;99.90;;;;;;5032458;28;20032;-67
2021/05/16 09:52:34;;;;;;;9.20;2.17;;;16.60;99.90;;;;;;5032041;28;20044;-68
2021/05/16 09:55:40;;;;;;;10.88;3.05;;;16.40;99.90;;;;;;5032260;28;20048;-67
2021/05/16 09:58:45;;;;;;;14.60;3.78;;;16.20;99.90;;;;;;5032106;28;20048;-69
2021/05/16 10:01:51;;;;;;;8.73;2.30;;;16.20;99.90;;;;;;5031815;28;20032;-68
2021/05/16 10:05:02;;;;;;;11.25;2.95;;;16.00;99.90;;;;;;5031327;28;20048;-68
2021/05/16 10:08:07;;;;;;;12.30;2.75;;;16.00;99.90;;;;;;5031063;28;20052;-68
2021/05/16 10:11:13;;;;;;;11.07;2.90;;;15.90;99.90;;;;;;5011265;28;20047;-67
2021/05/16 10:14:28;;;;;;;11.43;3.33;;;15.90;99.90;;;;;;5019045;28;20048;-69
2021/05/16 10:17:36;;;;;;;11.27;3.28;;;15.80;99.90;;;;;;5030652;28;20064;-68
2021/05/16 10:20:42;;;;;;;8.70;2.85;;;15.70;99.90;;;;;;5011564;28;20041;-68
2021/05/16 10:23:45;;;;;;;11.77;3.47;;;15.60;99.90;;;;;;5010618;28;20049;-68
2021/05/16 10:27:17;;;;;;;10.82;3.08;;;15.60;99.90;;;;;;5016820;28;20328;-69
2021/05/16 10:30:27;;;;;;;12.02;3.60;;;15.60;99.90;;;;;;5031275;28;20053;-70
2021/05/16 10:33:34;;;;;;;13.55;3.00;;;15.50;99.90;;;;;;5031172;28;20044;-68
2021/05/16 10:36:44;;;;;;;10.68;3.20;;;15.60;99.90;;;;;;5008726;28;20411;-69
2021/05/16 10:39:49;;;;;;;11.40;3.13;;;15.70;99.90;;;;;;5007028;28;20048;-66
2021/05/16 10:43:05;;;;;;;13.35;3.65;;;15.90;99.90;;;;;;5031761;28;20048;-66
2021/05/16 10:46:46;;;;;;;9.68;2.97;;;15.80;99.90;;;;;;5011132;28;20044;-68
2021/05/16 10:49:53;;;;;;;7.53;3.03;;;15.70;99.90;;;;;;5009931;28;20041;-67
2021/05/16 10:53:05;;;;;;;10.82;3.50;;;15.60;99.90;;;;;;5010690;28;20052;-68
2021/05/16 10:56:21;;;;;;;13.20;3.53;;;15.40;99.90;;;;;;5011061;28;20053;-68
2021/05/16 10:59:53;;;;;;;8.32;3.13;;;15.40;99.90;;;;;;5010968;28;20389;-69
2021/05/16 11:03:01;;;;;;;8.85;3.63;;;15.60;99.90;;;;;;5010855;28;20086;-68
2021/05/16 11:06:05;;;;;;;8.48;3.65;;;15.70;99.90;;;;;;5010732;28;20543;-69
2021/05/16 11:09:14;;;;;;;14.52;3.63;;;15.90;99.90;;;;;;5009854;28;20045;-68
2021/05/16 11:12:29;;;;;;;10.98;4.38;;;16.00;99.90;;;;;;5010675;28;20389;-67
2021/05/16 11:15:33;;;;;;;12.52;4.03;;;16.00;99.90;;;;;;4998471;28;20048;-68
2021/05/16 11:18:37;;;;;;;8.13;3.60;;;15.90;99.90;;;;;;5008207;28;20045;-68
2021/05/16 11:21:42;;;;;;;10.40;3.90;;;15.70;99.90;;;;;;5029936;28;20056;-67
2021/05/16 11:24:49;;;;;;;11.25;3.40;;;15.70;99.90;;;;;;5029193;28;20044;-67
2021/05/16 11:27:53;;;;;;;10.60;5.50;;;15.60;99.90;;;;;;5030343;28;20040;-67
2021/05/16 11:31:00;;;;;;;18.60;4.40;;;15.50;99.90;;;;;;5030308;28;20064;-68
2021/05/16 11:34:06;;;;;;;7.93;3.20;;;15.60;99.90;;;;;;5030163;28;20049;-67
2021/05/16 11:37:15;;;;;;;11.75;3.60;;;15.60;99.90;;;;;;5018498;28;20060;-67
2021/05/16 11:40:29;;;;;;;9.23;3.58;;;15.50;99.90;;;;;;5017622;28;20392;-67
2021/05/16 11:43:42;;;;;;;11.32;3.75;;;15.50;99.90;;;;;;5018009;28;20041;-68
2021/05/16 11:46:46;;;;;;;13.05;3.90;;;15.30;99.90;;;;;;5030112;28;20044;-67
2021/05/16 11:49:51;;;;;;;9.82;3.38;;;15.30;99.90;;;;;;5010431;28;20045;-66
2021/05/16 11:53:00;;;;;;;9.80;3.45;;;15.40;99.90;;;;;;4997903;28;20057;-67
2021/05/16 11:56:15;;;;;;;9.73;3.15;;;15.40;99.90;;;;;;5010638;28;20053;-68
2021/05/16 11:59:28;;;;;;;11.25;2.90;;;15.40;99.90;;;;;;5009441;28;20052;-67
2021/05/16 12:02:40;;;;;;;9.25;3.08;;;15.40;99.90;;;;;;5010523;28;20108;-67
2021/05/16 12:05:49;;;;;;;;;;;15.40;99.90;;;;;;5010414;28;20045;-68
2021/05/16 12:09:09;;;;;;;8.75;3.83;;;15.60;99.90;;;;;;5009031;28;19910;-68
2021/05/16 12:12:23;;;;;;;6.55;3.03;;;15.70;99.90;;;;;;5010043;28;20033;-67
2021/05/16 12:15:27;;;;;;;14.07;3.85;;;15.70;99.90;;;;;;5009812;28;20052;-67
2021/05/16 12:18:31;;;;;;;11.40;3.38;;;15.80;99.90;;;;;;5006712;28;20074;-67
2021/05/16 12:21:37;;;;;;;8.30;3.03;;;15.80;99.90;;;;;;5029470;28;20400;-66
2021/05/16 12:24:48;;;;;;;9.23;2.90;;;15.80;99.90;;;;;;5028319;28;20044;-67
2021/05/16 12:27:52;;;;;;;8.95;3.53;;;15.70;99.90;;;;;;5017628;28;20036;-67
2021/05/16 12:30:58;;;;;;;10.50;3.42;;;15.70;99.90;;;;;;5017315;28;20048;-67
2021/05/16 12:34:05;;;;;;;10.73;4.10;;;15.70;99.90;;;;;;5009754;28;20045;-67
2021/05/16 12:37:21;;;;;;;7.30;3.42;;;15.70;99.90;;;;;;5010106;28;20048;-67
2021/05/16 12:40:27;;;;;;;9.77;3.35;;;15.60;99.90;;;;;;5008992;28;20048;-68
2021/05/16 12:43:33;;;;;;;9.63;3.50;;;15.70;99.90;;;;;;5013849;28;20061;-66
2021/05/16 12:46:44;;;;;;;9.40;3.10;;;15.70;99.90;;;;;;5012972;28;20503;-66
2021/05/16 12:49:48;;;;;;;13.23;3.20;;;15.70;99.90;;;;;;5000891;28;20045;-67
2021/05/16 12:52:52;;;;;;;13.63;3.65;;;15.80;99.90;;;;;;5013133;28;20531;-67
2021/05/16 12:56:18;;;;;;;7.10;2.67;;;15.80;99.90;;;;;;5013129;28;20049;-67
2021/05/16 12:59:26;;;;;;;7.55;2.63;;;15.80;99.90;;;;;;5013263;28;20037;-67
2021/05/16 13:02:31;;;;;;;10.98;2.75;;;15.80;99.90;;;;;;5013253;28;20069;-67
2021/05/16 13:05:46;;;;;;;10.05;3.28;;;15.80;99.90;;;;;;5013335;28;20045;-67
2021/05/16 13:08:52;;;;;;;8.20;3.30;;;15.80;99.90;;;;;;5011894;28;20516;-66
2021/05/16 13:11:59;;;;;;;7.00;3.20;;;15.70;99.90;;;;;;5031665;28;20231;-66
2021/05/16 13:15:03;;;;;;;11.43;3.00;;;15.60;99.90;;;;;;5033383;28;20397;-67
2021/05/16 13:18:33;;;;;;;9.98;2.88;;;15.50;99.90;;;;;;5032774;28;20415;-67
2021/05/16 13:21:39;;;;;;;10.02;3.20;;;15.50;99.90;;;;;;5033006;28;20064;-67
2021/05/16 13:24:47;;;;;;;10.23;3.30;;;15.40;99.90;;;;;;5031953;28;20056;-67
2021/05/16 13:27:54;;;;;;;5.95;3.08;;;15.40;99.90;;;;;;5032644;28;20044;-67
2021/05/16 13:31:01;;;;;;;8.07;3.45;;;15.50;99.90;;;;;;5019797;28;20052;-67
2021/05/16 13:34:06;;;;;;;7.47;3.65;;;15.50;99.90;;;;;;5032417;28;20068;-67
2021/05/16 13:37:13;;;;;;;15.73;4.13;;;15.60;99.90;;;;;;5032301;28;20818;-67
2021/05/16 13:40:18;;;;;;;10.80;3.70;;;15.60;99.90;;;;;;5031518;28;20056;-69
2021/05/16 13:43:23;;;;;;;9.70;4.13;;;15.70;99.90;;;;;;5020126;28;20056;-68
2021/05/16 13:46:31;;;;;;;11.48;4.05;;;15.70;99.90;;;;;;5019715;28;20527;-67
2021/05/16 13:49:35;;;;;;;6.97;2.95;;;15.70;99.90;;;;;;5031593;28;20048;-67
2021/05/16 13:52:43;;;;;;;9.43;3.47;;;15.80;99.90;;;;;;5030868;28;20396;-67
2021/05/16 13:55:47;;;;;;;9.52;4.05;;;15.70;99.90;;;;;;5031966;28;20052;-68
2021/05/16 13:58:51;;;;;;;11.43;4.28;;;15.70;99.90;;;;;;5032012;28;20397;-68
2021/05/16 14:01:56;;;;;;;10.80;4.45;;;15.60;99.90;;;;;;5031696;28;20049;-67
2021/05/16 14:05:03;;;;;;;12.15;3.85;;;15.60;99.90;;;;;;5031488;28;20044;-69
2021/05/16 14:08:07;;;;;;;10.02;4.15;;;15.70;99.90;;;;;;5031478;28;20053;-67
2021/05/16 14:11:11;;;;;;;8.55;4.50;;;15.50;99.90;;;;;;5031382;28;20052;-67
2021/05/16 14:14:15;;;;;;;8.55;4.20;;;15.60;99.90;;;;;;5032019;28;20044;-67
2021/05/16 14:17:19;;;;;;;13.65;4.22;;;15.60;99.90;;;;;;5032040;28;20507;-68
2021/05/16 14:20:24;;;;;;;12.23;4.70;;;15.50;99.90;;;;;;5011440;28;20053;-68
2021/05/16 14:23:29;;;;;;;9.23;4.25;;;15.50;99.90;;;;;;4999397;28;20061;-67
2021/05/16 14:26:33;;;;;;;13.70;4.25;;;15.60;99.90;;;;;;5011573;28;20044;-67
2021/05/16 14:29:37;;;;;;;10.52;4.10;;;15.50;99.90;;;;;;5011772;28;20045;-66
2021/05/16 14:32:43;;;;;;;8.38;3.92;;;15.40;99.90;;;;;;5024442;28;20056;-67
2021/05/16 14:35:50;;;;;;;10.77;5.05;;;15.40;99.90;;;;;;5019253;28;20064;-67
2021/05/16 14:38:56;;;;;;;7.05;3.00;;;15.50;99.90;;;;;;5030469;28;20056;-68
2021/05/16 14:42:02;;;;;;;9.40;4.00;;;15.60;99.90;;;;;;5030889;28;20060;-68
2021/05/16 14:45:07;;;;;;;8.90;3.53;;;15.90;99.90;;;;;;5031522;28;20057;-68
2021/05/16 14:48:13;;;;;;;7.28;3.88;;;16.00;99.90;;;;;;5030943;28;20064;-68
2021/05/16 14:51:26;;;;;;;10.52;4.05;;;16.10;99.90;;;;;;5030477;28;20396;-68
2021/05/16 14:54:32;;;;;;;8.93;4.10;;;16.20;99.90;;;;;;5029945;28;20240;-67
2021/05/16 14:57:37;;;;;;;8.77;3.45;;;16.20;99.90;;;;;;5030159;28;20048;-67
2021/05/16 15:00:43;;;;;;;6.63;3.28;;;16.20;99.90;;;;;;5030456;28;20056;-68
2021/05/16 15:03:50;;;;;;;5.30;2.95;;;16.00;99.90;;;;;;5034362;28;20052;-68
2021/05/16 15:06:56;;;;;;;4.90;2.65;;;16.00;99.90;;;;;;5018213;28;20048;-68
2021/05/16 15:10:01;;;;;;;5.03;3.30;;;16.00;99.90;;;;;;5017741;28;20400;-68
2021/05/16 15:13:06;;;;;;;11.38;3.78;;;16.00;99.90;;;;;;5030442;28;20049;-68
2021/05/16 15:16:11;;;;;;;7.38;3.30;;;16.00;99.90;;;;;;5030657;28;20044;-68
2021/05/16 15:19:17;;;;;;;8.27;3.50;;;15.90;99.90;;;;;;5030079;28;20844;-68
2021/05/16 15:22:25;;;;;;;6.72;2.85;;;16.00;99.90;;;;;;5018121;28;20056;-68
2021/05/16 15:25:30;;;;;;;12.25;3.15;;;15.90;99.90;;;;;;5017603;28;20044;-68
2021/05/16 15:28:37;;;;;;;5.70;2.78;;;15.80;99.90;;;;;;5029826;28;20057;-67
2021/05/16 15:31:42;;;;;;;7.85;3.28;;;15.80;99.90;;;;;;5018355;28;20049;-67
2021/05/16 15:34:46;;;;;;;6.03;2.63;;;15.90;99.90;;;;;;5010300;28;20041;-67
2021/05/16 15:37:51;;;;;;;6.25;2.92;;;15.90;99.90;;;;;;4998037;28;20045;-67
2021/05/16 15:40:56;;;;;;;9.38;2.55;;;16.00;99.90;;;;;;4997603;28;20044;-68
2021/05/16 15:44:01;;;;;;;5.22;2.55;;;16.20;99.90;;;;;;5019349;28;20056;-68
2021/05/16 15:47:05;;;;;;;2.85;1.63;;;16.10;99.90;;;;;;5027557;28;20048;-68
2021/05/16 15:50:10;;;;;;;2.55;1.50;;;16.00;99.90;;;;;;5009763;28;20072;-68
2021/05/16 15:53:16;;;;;;;3.17;1.60;;;15.90;99.90;;;;;;5026456;28;20040;-67
2021/05/16 15:56:20;;;;;;;6.30;1.80;;;15.90;99.90;;;;;;5029878;28;20061;-68
2021/05/16 15:59:25;;;;;;;5.32;2.20;;;15.80;99.90;;;;;;5030258;28;20523;-67
2021/05/16 16:02:29;;;;;;;5.22;2.13;;;15.80;99.90;;;;;;5010349;28;20049;-68
2021/05/16 16:05:34;;;;;;;8.07;2.20;;;16.00;99.90;;;;;;5009842;28;20504;-68